createdAt,value
2023-05-18T00:00:51.345Z,76.3
2023-05-18T00:02:07.641Z,76.3
2023-05-18T00:03:23.928Z,76.5
2023-05-18T00:04:39.250Z,76.7
2023-05-18T00:05:55.524Z,76.5
2023-05-18T00:07:11.825Z,76.8
2023-05-18T00:08:28.133Z,76.8
2023-05-18T00:09:44.418Z,76.9
2023-05-18T00:11:00.705Z,77
2023-05-18T00:12:17.011Z,76.9
2023-05-18T00:13:33.305Z,77
2023-05-18T00:16:05.890Z,77.1
2023-05-18T00:17:22.190Z,77.1
2023-05-18T00:18:38.471Z,76.9
2023-05-18T00:19:54.779Z,77.5
2023-05-18T00:21:10.089Z,78.1
2023-05-18T00:23:42.669Z,78.3
2023-05-18T00:24:58.964Z,78.7
2023-05-18T00:26:15.261Z,79.4
2023-05-18T00:27:31.562Z,79.2
2023-05-18T00:28:47.852Z,79.3
2023-05-18T00:31:20.443Z,79.4
2023-05-18T00:32:35.743Z,79.7
2023-05-18T00:33:51.066Z,79.9
2023-05-18T00:35:07.353Z,80
2023-05-18T00:36:22.678Z,80.2
2023-05-18T00:37:38.969Z,80.4
2023-05-18T00:38:55.263Z,80.5
2023-05-18T00:40:11.560Z,80
2023-05-18T00:41:27.841Z,79.6
2023-05-18T00:42:44.131Z,79.1
2023-05-18T00:44:00.438Z,79
2023-05-18T00:45:15.750Z,78.9
2023-05-18T00:46:31.064Z,78.9
2023-05-18T00:47:47.352Z,79
2023-05-18T00:49:03.655Z,79.1
2023-05-18T00:50:19.942Z,79.6
2023-05-18T00:51:36.246Z,79.6
2023-05-18T00:52:52.537Z,79.7
2023-05-18T00:54:08.830Z,79.6
2023-05-18T00:55:25.119Z,79.6
2023-05-18T00:56:41.412Z,79.5
2023-05-18T00:57:57.719Z,79.7
2023-05-18T00:59:14.008Z,79.7
2023-05-18T01:01:46.617Z,79.8
2023-05-18T01:03:01.906Z,80
2023-05-18T01:04:18.193Z,80.1
2023-05-18T01:05:34.486Z,80
2023-05-18T01:06:50.789Z,79.8
2023-05-18T01:08:07.095Z,80.1
2023-05-18T01:09:23.373Z,80.5
2023-05-18T01:10:39.667Z,80.3
2023-05-18T01:11:55.968Z,80.3
2023-05-18T01:13:12.270Z,80.4
2023-05-18T01:14:28.555Z,80.4
2023-05-18T01:15:44.849Z,80.4
2023-05-18T01:17:01.156Z,80.5
2023-05-18T01:18:17.446Z,80.7
2023-05-18T01:19:32.747Z,80.9
2023-05-18T01:20:49.055Z,80.9
2023-05-18T01:22:05.332Z,80.8
2023-05-18T01:23:21.625Z,80.9
2023-05-18T01:24:37.925Z,80.9
2023-05-18T01:25:54.219Z,80.9
2023-05-18T01:27:10.522Z,81.2
2023-05-18T01:28:26.809Z,81.1
2023-05-18T01:29:43.000Z,81
2023-05-18T01:30:59.392Z,81.5
2023-05-18T01:32:15.699Z,81.3
2023-05-18T01:33:31.987Z,81.2
2023-05-18T01:34:48.286Z,81.2
2023-05-18T01:36:03.604Z,81.1
2023-05-18T01:37:19.893Z,81.1
2023-05-18T01:38:36.193Z,80.9
2023-05-18T01:39:52.485Z,80.9
2023-05-18T01:41:08.768Z,81.1
2023-05-18T01:42:25.068Z,81.1
2023-05-18T01:43:41.362Z,81.3
2023-05-18T01:44:57.658Z,81.2
2023-05-18T01:46:13.958Z,81.1
2023-05-18T01:47:30.242Z,81.1
2023-05-18T01:48:46.536Z,81.5
2023-05-18T01:50:02.840Z,82.1
2023-05-18T01:51:19.132Z,82
2023-05-18T01:52:34.446Z,82
2023-05-18T01:53:50.737Z,82.2
2023-05-18T01:55:07.037Z,82.4
2023-05-18T01:57:39.616Z,82.5
2023-05-18T01:58:55.909Z,82.7
2023-05-18T02:00:12.217Z,82.8
2023-05-18T02:01:28.511Z,82.9
2023-05-18T02:02:44.806Z,82.9
2023-05-18T02:04:01.099Z,83.4
2023-05-18T02:05:17.386Z,83.9
2023-05-18T02:06:33.676Z,83.7
2023-05-18T02:07:49.965Z,83.7
2023-05-18T02:09:05.277Z,83.7
2023-05-18T02:10:21.590Z,83.6
2023-05-18T02:11:37.882Z,84.3
2023-05-18T02:12:54.163Z,84.3
2023-05-18T02:14:10.455Z,84.5
2023-05-18T02:15:26.748Z,84.9
2023-05-18T02:17:59.346Z,85.2
2023-05-18T02:19:15.638Z,85.5
2023-05-18T02:20:31.929Z,85.6
2023-05-18T02:21:48.234Z,85.7
2023-05-18T02:23:04.517Z,85.7
2023-05-18T02:24:20.822Z,86.2
2023-05-18T02:25:36.124Z,86.3
2023-05-18T02:28:08.676Z,86.3
2023-05-18T02:29:24.952Z,86.7
2023-05-18T02:30:41.247Z,86.8
2023-05-18T02:33:13.759Z,86.8
2023-05-18T02:34:29.009Z,86.8
2023-05-18T02:35:44.268Z,86.8
2023-05-18T02:37:00.500Z,86.7
2023-05-18T02:38:16.765Z,86.8
2023-05-18T02:39:32.998Z,86.7
2023-05-18T02:40:49.237Z,86.7
2023-05-18T02:42:05.473Z,86.6
2023-05-18T02:43:21.728Z,86.3
2023-05-18T02:44:37.972Z,86.2
2023-05-18T02:45:54.204Z,86.3
2023-05-18T02:47:09.469Z,86.4
2023-05-18T02:48:25.821Z,86.4
2023-05-18T02:50:58.320Z,86.6
2023-05-18T02:52:14.548Z,86.7
2023-05-18T02:53:30.802Z,86.7
2023-05-18T02:56:03.271Z,86.7
2023-05-18T02:57:19.512Z,86.7
2023-05-18T02:59:52.005Z,86.8
2023-05-18T03:01:08.243Z,87.1
2023-05-18T03:02:24.476Z,86.9
2023-05-18T03:03:40.870Z,87
2023-05-18T03:04:56.126Z,87.2
2023-05-18T03:06:12.351Z,87.5
2023-05-18T03:07:28.609Z,87.4
2023-05-18T03:08:44.831Z,87.2
2023-05-18T03:10:01.087Z,87.2
2023-05-18T03:11:17.318Z,87.5
2023-05-18T03:12:33.558Z,87.1
2023-05-18T03:13:49.798Z,86.8
2023-05-18T03:15:06.034Z,87.2
2023-05-18T03:16:21.307Z,87.5
2023-05-18T03:17:36.561Z,87.4
2023-05-18T03:18:52.793Z,87.6
2023-05-18T03:20:09.036Z,87.5
2023-05-18T03:21:25.290Z,87.4
2023-05-18T03:22:41.516Z,87.6
2023-05-18T03:23:57.759Z,87.5
2023-05-18T03:25:14.013Z,87.6
2023-05-18T03:26:30.247Z,87.3
2023-05-18T03:27:46.490Z,87.5
2023-05-18T03:29:02.734Z,87.7
2023-05-18T03:30:18.978Z,87.6
2023-05-18T03:31:35.203Z,87.6
2023-05-18T03:32:51.444Z,87.6
2023-05-18T03:34:06.705Z,87.9
2023-05-18T03:36:39.197Z,88.4
2023-05-18T03:37:55.433Z,88.7
2023-05-18T03:39:11.673Z,88.9
2023-05-18T03:41:44.143Z,88.8
2023-05-18T03:43:00.389Z,88.5
2023-05-18T03:44:16.635Z,88.2
2023-05-18T03:45:32.869Z,88
2023-05-18T03:46:49.117Z,87.7
2023-05-18T03:48:05.355Z,87.4
2023-05-18T03:49:21.607Z,87.1
2023-05-18T03:50:36.855Z,86.8
2023-05-18T03:51:53.085Z,86.6
2023-05-18T03:53:09.339Z,86.5
2023-05-18T03:54:25.581Z,86.5
2023-05-18T03:55:41.813Z,86.3
2023-05-18T03:56:58.053Z,86.3
2023-05-18T03:58:14.292Z,86
2023-05-18T03:59:30.545Z,86
2023-05-18T04:00:46.775Z,85.9
2023-05-18T04:02:03.021Z,85.9
2023-05-18T04:04:35.495Z,85.7
2023-05-18T04:05:51.734Z,85.5
2023-05-18T04:07:06.986Z,85.4
2023-05-18T04:08:23.226Z,85.2
2023-05-18T04:09:39.478Z,85
2023-05-18T04:10:55.719Z,85
2023-05-18T04:12:11.967Z,84.8
2023-05-18T04:13:28.201Z,84.8
2023-05-18T04:14:44.428Z,84.9
2023-05-18T04:16:00.690Z,84.8
2023-05-18T04:17:16.923Z,84.8
2023-05-18T04:18:33.166Z,84.2
2023-05-18T04:19:49.407Z,84.3
2023-05-18T04:21:05.647Z,84.3
2023-05-18T04:22:21.870Z,84.5
2023-05-18T04:23:37.136Z,84.8
2023-05-18T04:24:53.379Z,85.1
2023-05-18T04:27:25.861Z,85.8
2023-05-18T04:28:42.086Z,86.4
2023-05-18T04:29:58.328Z,86.7
2023-05-18T04:31:14.578Z,87.3
2023-05-18T04:32:30.812Z,87.7
2023-05-18T04:33:47.052Z,87.8
2023-05-18T04:35:03.295Z,87.8
2023-05-18T04:36:19.525Z,87.7
2023-05-18T04:37:35.780Z,87.8
2023-05-18T04:38:52.011Z,88.4
2023-05-18T04:40:07.281Z,88
2023-05-18T04:41:23.520Z,87.6
2023-05-18T04:42:39.757Z,87
2023-05-18T04:43:55.999Z,87.7
2023-05-18T04:45:12.229Z,87.1
2023-05-18T04:46:28.478Z,87.7
2023-05-18T04:47:44.717Z,86.5
2023-05-18T04:49:00.957Z,86.9
2023-05-18T04:50:17.190Z,87.3
2023-05-18T04:51:32.465Z,88
2023-05-18T04:52:48.689Z,86.4
2023-05-18T04:54:04.936Z,87.5
2023-05-18T04:55:21.170Z,87
2023-05-18T04:56:37.417Z,86.9
2023-05-18T04:57:53.660Z,87.3
2023-05-18T04:59:09.899Z,86.8
2023-05-18T05:00:26.145Z,87.3
2023-05-18T05:01:42.379Z,87
2023-05-18T05:02:58.609Z,85.8
2023-05-18T05:04:14.846Z,85.5
2023-05-18T05:05:31.104Z,85.3
2023-05-18T05:06:47.340Z,85
2023-05-18T05:08:02.595Z,85.3
2023-05-18T05:09:18.844Z,85.7
2023-05-18T05:10:35.078Z,85.5
2023-05-18T05:11:51.321Z,84.9
2023-05-18T05:13:07.559Z,83.2
2023-05-18T05:14:23.788Z,84.3
2023-05-18T05:15:40.024Z,83.5
2023-05-18T05:16:56.279Z,84.3
2023-05-18T05:18:12.525Z,83.7
2023-05-18T05:19:28.751Z,82.8
2023-05-18T05:20:44.997Z,83.7
2023-05-18T05:22:01.228Z,85
2023-05-18T05:23:17.475Z,83.2
2023-05-18T05:24:32.736Z,83.4
2023-05-18T05:25:48.976Z,82.5
2023-05-18T05:27:05.216Z,83.1
2023-05-18T05:28:21.446Z,81.4
2023-05-18T05:29:37.700Z,81.3
2023-05-18T05:30:53.927Z,81.3
2023-05-18T05:32:10.172Z,80.8
2023-05-18T05:33:26.407Z,80.7
2023-05-18T05:35:58.884Z,80.9
2023-05-18T05:37:15.137Z,79.3
2023-05-18T05:38:31.376Z,79.5
2023-05-18T05:39:47.620Z,80.9
2023-05-18T05:41:02.862Z,81
2023-05-18T05:43:35.342Z,81.3
2023-05-18T05:44:51.589Z,80.7
2023-05-18T05:46:07.832Z,80.2
2023-05-18T05:47:24.071Z,79.7
2023-05-18T05:48:40.314Z,80.5
2023-05-18T05:49:56.556Z,81.4
2023-05-18T05:51:12.796Z,81.6
2023-05-18T05:52:29.037Z,79.7
2023-05-18T05:53:45.262Z,79.5
2023-05-18T05:55:01.509Z,80
2023-05-18T05:56:17.744Z,78.6
2023-05-18T05:57:32.996Z,79.6
2023-05-18T05:58:49.240Z,79
2023-05-18T06:00:05.481Z,80.2
2023-05-18T06:01:21.731Z,79.6
2023-05-18T06:02:37.967Z,76.8
2023-05-18T06:03:54.211Z,77.8
2023-05-18T06:05:10.440Z,77.9
2023-05-18T06:06:26.695Z,78.2
2023-05-18T06:07:42.919Z,79
2023-05-18T06:08:59.160Z,79.3
2023-05-18T06:10:15.416Z,78.6
2023-05-18T06:11:31.643Z,78.2
2023-05-18T06:12:47.896Z,78.5
2023-05-18T06:14:03.139Z,78.7
2023-05-18T06:15:19.392Z,78.8
2023-05-18T06:16:35.612Z,79.9
2023-05-18T06:17:51.861Z,80.1
2023-05-18T06:19:08.096Z,77.9
2023-05-18T06:20:24.334Z,80.2
2023-05-18T06:21:40.586Z,77.1
2023-05-18T06:22:56.831Z,78.5
2023-05-18T06:24:13.069Z,79
2023-05-18T06:25:29.295Z,78
2023-05-18T06:26:45.550Z,76.9
2023-05-18T06:28:01.776Z,76
2023-05-18T06:29:18.022Z,76.5
2023-05-18T06:30:33.274Z,76.4
2023-05-18T06:31:49.510Z,76.9
2023-05-18T06:33:05.761Z,77.5
2023-05-18T06:34:22.007Z,80.1
2023-05-18T06:35:38.233Z,74.5
2023-05-18T06:36:54.494Z,75.2
2023-05-18T06:38:10.715Z,75.4
2023-05-18T06:39:26.949Z,76.1
2023-05-18T06:40:43.205Z,76.5
2023-05-18T06:41:59.449Z,75.9
2023-05-18T06:43:15.674Z,76.4
2023-05-18T06:44:31.923Z,76.1
2023-05-18T06:45:48.158Z,75.2
2023-05-18T06:47:03.426Z,75.4
2023-05-18T06:48:19.651Z,75.8
2023-05-18T06:49:35.900Z,76
2023-05-18T06:50:52.129Z,76.1
2023-05-18T06:52:08.368Z,75
2023-05-18T06:53:24.624Z,75.9
2023-05-18T06:54:40.856Z,75.9
2023-05-18T06:55:57.104Z,75.5
2023-05-18T06:57:13.333Z,77.1
2023-05-18T06:58:29.583Z,75
2023-05-18T06:59:45.816Z,73.6
2023-05-18T07:01:02.061Z,75.3
2023-05-18T07:02:18.301Z,75.6
2023-05-18T07:03:34.664Z,73
2023-05-18T07:04:50.906Z,71.2
2023-05-18T07:07:23.374Z,71.6
2023-05-18T07:08:39.622Z,72
2023-05-18T07:09:55.868Z,71.5
2023-05-18T07:11:12.100Z,73.6
2023-05-18T07:12:28.341Z,70.9
2023-05-18T07:13:44.570Z,71.6
2023-05-18T07:15:00.811Z,72.1
2023-05-18T07:16:17.052Z,72.9
2023-05-18T07:17:33.294Z,72.7
2023-05-18T07:18:49.531Z,70.6
2023-05-18T07:20:05.787Z,68.7
2023-05-18T07:21:21.027Z,70
2023-05-18T07:22:37.279Z,69.4
2023-05-18T07:23:53.517Z,71.8
2023-05-18T07:25:09.747Z,70.5
2023-05-18T07:26:26.004Z,70
2023-05-18T07:27:42.229Z,69.7
2023-05-18T07:28:58.475Z,71.2
2023-05-18T07:30:14.709Z,71
2023-05-18T07:31:30.950Z,69.3
2023-05-18T07:32:47.189Z,70.2
2023-05-18T07:34:03.443Z,70.2
2023-05-18T07:35:19.683Z,68.2
2023-05-18T07:36:35.917Z,69.3
2023-05-18T07:37:51.169Z,67.1
2023-05-18T07:39:07.407Z,68.8
2023-05-18T07:40:23.651Z,67.5
2023-05-18T07:41:39.895Z,66.5
2023-05-18T07:42:56.122Z,66.2
2023-05-18T07:44:12.362Z,67
2023-05-18T07:45:28.621Z,67.4
2023-05-18T07:46:44.847Z,66.2
2023-05-18T07:48:01.089Z,67
2023-05-18T07:49:17.339Z,68.2
2023-05-18T07:50:33.574Z,66.7
2023-05-18T07:53:06.046Z,68.3
2023-05-18T07:54:21.320Z,67.3
2023-05-18T07:55:37.557Z,63.7
2023-05-18T07:56:53.792Z,63.1
2023-05-18T07:58:10.020Z,62.5
2023-05-18T07:59:26.264Z,65.7
2023-05-18T08:00:42.512Z,65.5
2023-05-18T08:01:58.747Z,67.2
2023-05-18T08:03:14.993Z,64.3
2023-05-18T08:04:31.225Z,62.6
2023-05-18T08:05:47.460Z,60.8
2023-05-18T08:07:03.704Z,61.7
2023-05-18T08:08:19.947Z,62.1
2023-05-18T08:09:36.191Z,62.3
2023-05-18T08:10:51.440Z,61.3
2023-05-18T08:12:07.686Z,64
2023-05-18T08:13:23.926Z,59.7
2023-05-18T08:14:40.166Z,60.4
2023-05-18T08:15:56.398Z,63.2
2023-05-18T08:17:12.639Z,61.7
2023-05-18T08:18:28.885Z,60.8
2023-05-18T08:19:45.115Z,62.2
2023-05-18T08:21:01.368Z,60.1
2023-05-18T08:23:33.842Z,62.3
2023-05-18T08:24:50.086Z,62.6
2023-05-18T08:26:06.312Z,61.9
2023-05-18T08:27:21.571Z,61.7
2023-05-18T08:28:37.810Z,63.3
2023-05-18T08:29:54.058Z,62.5
2023-05-18T08:31:10.304Z,61.3
2023-05-18T08:32:26.528Z,58.7
2023-05-18T08:33:42.778Z,61.1
2023-05-18T08:34:59.006Z,60.7
2023-05-18T08:36:15.255Z,58
2023-05-18T08:38:47.746Z,60.5
2023-05-18T08:40:03.968Z,63
2023-05-18T08:41:20.222Z,62.5
2023-05-18T08:42:36.450Z,62.4
2023-05-18T08:43:51.711Z,61.3
2023-05-18T08:46:24.183Z,61.5
2023-05-18T08:47:39.453Z,61.9
2023-05-18T08:48:54.708Z,64.1
2023-05-18T08:50:10.945Z,65.1
2023-05-18T08:51:27.191Z,61.8
2023-05-18T08:52:43.436Z,63.9
2023-05-18T08:53:59.677Z,59.9
2023-05-18T08:55:15.908Z,60.6
2023-05-18T08:56:32.159Z,61.2
2023-05-18T08:57:48.383Z,59
2023-05-18T08:59:04.620Z,60.8
2023-05-18T09:01:36.119Z,62.5
2023-05-18T09:02:51.393Z,62.5
2023-05-18T09:04:07.631Z,58.3
2023-05-18T09:05:23.855Z,61
2023-05-18T09:06:39.133Z,62.6
2023-05-18T09:09:11.616Z,60.5
2023-05-18T09:10:26.875Z,58
2023-05-18T09:11:42.123Z,58.4
2023-05-18T09:12:58.367Z,58.8
2023-05-18T09:14:14.603Z,60
2023-05-18T09:15:30.839Z,59
2023-05-18T09:16:47.093Z,62
2023-05-18T09:18:03.321Z,61.4
2023-05-18T09:19:19.570Z,60.6
2023-05-18T09:20:35.810Z,60
2023-05-18T09:21:52.039Z,60.2
2023-05-18T09:23:07.311Z,59.1
2023-05-18T09:24:22.558Z,58.9
2023-05-18T09:25:38.800Z,61.5
2023-05-18T09:26:55.042Z,59.6
2023-05-18T09:28:11.290Z,59.3
2023-05-18T09:29:27.523Z,57.3
2023-05-18T09:32:00.004Z,58.9
2023-05-18T09:33:16.235Z,56.8
2023-05-18T09:34:32.483Z,57.7
2023-05-18T09:37:04.965Z,56.5
2023-05-18T09:38:20.210Z,59
2023-05-18T09:39:35.485Z,56.8
2023-05-18T09:40:51.721Z,58.4
2023-05-18T09:42:07.959Z,58.2
2023-05-18T09:43:24.190Z,61
2023-05-18T09:44:40.431Z,59.7
2023-05-18T09:47:12.916Z,56.1
2023-05-18T09:48:29.153Z,58.9
2023-05-18T09:49:45.391Z,54
2023-05-18T09:51:01.632Z,55.4
2023-05-18T09:52:17.881Z,57.7
2023-05-18T09:53:34.125Z,61
2023-05-18T09:54:50.362Z,60.7
2023-05-18T09:56:05.604Z,59.3
2023-05-18T09:57:21.850Z,60.5
2023-05-18T09:58:38.087Z,57.9
2023-05-18T09:59:54.326Z,53.6
2023-05-18T10:02:26.809Z,54.9
2023-05-18T10:03:43.042Z,54.3
2023-05-18T10:04:59.288Z,56.9
2023-05-18T10:06:15.528Z,58.2
2023-05-18T10:07:31.777Z,56.8
2023-05-18T10:10:04.247Z,56.2
2023-05-18T10:11:20.478Z,57
2023-05-18T10:12:35.742Z,54.3
2023-05-18T10:13:51.981Z,57.3
2023-05-18T10:15:08.220Z,55.4
2023-05-18T10:17:40.696Z,58.2
2023-05-18T10:18:56.949Z,56.2
2023-05-18T10:20:13.185Z,57.5
2023-05-18T10:21:29.426Z,57
2023-05-18T10:22:45.665Z,57.3
2023-05-18T10:25:18.152Z,59.3
2023-05-18T10:26:34.377Z,60.2
2023-05-18T10:27:50.627Z,55.4
2023-05-18T10:29:05.875Z,56.7
2023-05-18T10:30:22.000Z,54.8
2023-05-18T10:32:54.607Z,54.1
2023-05-18T10:34:10.840Z,55.2
2023-05-18T10:35:27.077Z,60.4
2023-05-18T10:36:43.324Z,54.2
2023-05-18T10:37:59.562Z,54.4
2023-05-18T10:39:15.798Z,54.2
2023-05-18T10:40:32.043Z,56.7
2023-05-18T10:41:48.280Z,54.9
2023-05-18T10:43:04.509Z,55.5
2023-05-18T10:44:20.752Z,60.6
2023-05-18T10:45:36.017Z,55.9
2023-05-18T10:46:52.248Z,56.2
2023-05-18T10:48:08.502Z,54.2
2023-05-18T10:49:24.730Z,53.9
2023-05-18T10:50:40.969Z,54.3
2023-05-18T10:51:56.247Z,54
2023-05-18T10:53:11.483Z,54.9
2023-05-18T10:54:27.740Z,52.6
2023-05-18T10:55:43.973Z,49.6
2023-05-18T10:57:00.206Z,51.4
2023-05-18T10:58:16.457Z,55.2
2023-05-18T10:59:32.682Z,55.4
2023-05-18T11:00:48.926Z,55.3
2023-05-18T11:02:05.173Z,56.2
2023-05-18T11:03:21.407Z,56
2023-05-18T11:04:36.665Z,57.1
2023-05-18T11:05:51.919Z,52.8
2023-05-18T11:07:08.163Z,58.2
2023-05-18T11:08:24.404Z,54
2023-05-18T11:09:40.643Z,52.2
2023-05-18T11:10:56.898Z,52.2
2023-05-18T11:12:13.121Z,55
2023-05-18T11:13:29.359Z,55.9
2023-05-18T11:14:45.614Z,52.4
2023-05-18T11:16:01.852Z,54.2
2023-05-18T11:17:18.084Z,54.4
2023-05-18T11:18:34.321Z,55.4
2023-05-18T11:19:50.575Z,50.5
2023-05-18T11:21:06.811Z,53.4
2023-05-18T11:22:23.170Z,52
2023-05-18T11:23:39.411Z,52.8
2023-05-18T11:24:55.647Z,51.6
2023-05-18T11:26:11.892Z,55.6
2023-05-18T11:27:28.126Z,54.5
2023-05-18T11:28:44.361Z,51.5
2023-05-18T11:30:00.603Z,53.3
2023-05-18T11:31:16.848Z,53
2023-05-18T11:32:33.093Z,54.2
2023-05-18T11:33:49.317Z,52.1
2023-05-18T11:35:05.561Z,53.9
2023-05-18T11:36:21.815Z,52
2023-05-18T11:37:38.039Z,52.3
2023-05-18T11:38:53.298Z,49.5
2023-05-18T11:40:09.540Z,49.5
2023-05-18T11:41:25.791Z,52.9
2023-05-18T11:42:42.024Z,57.2
2023-05-18T11:43:58.267Z,53.9
2023-05-18T11:45:14.499Z,57
2023-05-18T11:46:30.751Z,52.5
2023-05-18T11:47:46.982Z,52.9
2023-05-18T11:49:03.213Z,53.9
2023-05-18T11:51:35.706Z,53.1
2023-05-18T11:52:51.936Z,56
2023-05-18T11:54:08.177Z,54.1
2023-05-18T11:55:23.423Z,50.2
2023-05-18T11:56:39.665Z,50.5
2023-05-18T11:57:55.911Z,56.1
2023-05-18T11:59:12.148Z,55.7
2023-05-18T12:00:28.401Z,51.2
2023-05-18T12:01:44.641Z,50.6
2023-05-18T12:04:17.110Z,56
2023-05-18T12:05:33.346Z,53.1
2023-05-18T12:06:49.594Z,50.7
2023-05-18T12:08:05.835Z,48.6
2023-05-18T12:09:22.073Z,51.9
2023-05-18T12:11:54.552Z,52.6
2023-05-18T12:13:09.805Z,50.3
2023-05-18T12:14:25.070Z,49.2
2023-05-18T12:15:41.315Z,48.4
2023-05-18T12:16:57.550Z,50.7
2023-05-18T12:19:30.029Z,51.3
2023-05-18T12:20:46.261Z,51
2023-05-18T12:22:02.506Z,49.9
2023-05-18T12:23:18.740Z,52.4
2023-05-18T12:24:34.979Z,50.9
2023-05-18T12:25:51.216Z,51.1
2023-05-18T12:27:07.457Z,49.1
2023-05-18T12:28:23.704Z,52.5
2023-05-18T12:29:39.955Z,52.6
2023-05-18T12:32:11.442Z,50.8
2023-05-18T12:33:26.711Z,50.8
2023-05-18T12:34:41.950Z,52.1
2023-05-18T12:35:58.196Z,51.5
2023-05-18T12:37:14.432Z,49
2023-05-18T12:38:30.687Z,51
2023-05-18T12:39:46.929Z,49.3
2023-05-18T12:41:03.157Z,48.6
2023-05-18T12:42:19.399Z,49.2
2023-05-18T12:43:35.648Z,51.6
2023-05-18T12:44:51.887Z,49.4
2023-05-18T12:46:07.144Z,49.4
2023-05-18T12:47:22.396Z,51.5
2023-05-18T12:48:38.630Z,48.6
2023-05-18T12:49:54.873Z,48.1
2023-05-18T12:51:11.122Z,48.8
2023-05-18T12:52:27.347Z,53.4
2023-05-18T12:53:43.587Z,52.1
2023-05-18T12:54:59.839Z,54.9
2023-05-18T12:56:16.084Z,54.2
2023-05-18T12:57:32.308Z,52.8
2023-05-18T12:58:48.559Z,54.3
2023-05-18T13:00:03.817Z,52.8
2023-05-18T13:01:19.070Z,49.6
2023-05-18T13:02:35.300Z,50.2
2023-05-18T13:03:51.548Z,49
2023-05-18T13:05:07.781Z,48.2
2023-05-18T13:06:24.037Z,50.3
2023-05-18T13:07:40.277Z,46.6
2023-05-18T13:08:56.510Z,52.6
2023-05-18T13:11:28.988Z,52.4
2023-05-18T13:12:45.234Z,49
2023-05-18T13:14:01.472Z,54.5
2023-05-18T13:15:17.716Z,52.8
2023-05-18T13:16:33.945Z,51.7
2023-05-18T13:17:49.211Z,47.3
2023-05-18T13:20:21.688Z,49.9
2023-05-18T13:21:36.966Z,47
2023-05-18T13:22:52.203Z,49.8
2023-05-18T13:24:08.448Z,49.8
2023-05-18T13:25:24.698Z,52.2
2023-05-18T13:26:40.941Z,54.9
2023-05-18T13:27:57.180Z,49.1
2023-05-18T13:29:13.413Z,54
2023-05-18T13:30:29.646Z,53.2
2023-05-18T13:31:45.891Z,52.2
2023-05-18T13:33:02.137Z,52
2023-05-18T13:35:34.611Z,49.5
2023-05-18T13:36:50.847Z,51.9
2023-05-18T13:38:07.092Z,52.4
2023-05-18T13:39:22.353Z,50.2
2023-05-18T13:40:38.587Z,49.5
2023-05-18T13:41:54.819Z,48.7
2023-05-18T13:43:11.062Z,52.8
2023-05-18T13:44:27.304Z,51.5
2023-05-18T13:45:43.543Z,49.4
2023-05-18T13:46:59.775Z,49.6
2023-05-18T13:48:15.051Z,50.7
2023-05-18T13:49:30.309Z,49.5
2023-05-18T13:50:46.551Z,49.4
2023-05-18T13:52:02.772Z,48.8
2023-05-18T13:53:19.023Z,52.2
2023-05-18T13:54:35.266Z,50
2023-05-18T13:55:51.506Z,54.7
2023-05-18T13:58:23.977Z,53.9
2023-05-18T13:59:40.227Z,52.4
2023-05-18T14:00:56.452Z,53.3
2023-05-18T14:02:12.695Z,49.3
2023-05-18T14:03:28.940Z,52.3
2023-05-18T14:06:01.411Z,51.6
2023-05-18T14:07:16.674Z,48.7
2023-05-18T14:08:31.945Z,48.5
2023-05-18T14:09:48.178Z,53.3
2023-05-18T14:11:04.424Z,51.6
2023-05-18T14:12:20.653Z,50.6
2023-05-18T14:13:36.906Z,49.8
2023-05-18T14:14:53.141Z,54
2023-05-18T14:16:09.370Z,51.8
2023-05-18T14:17:25.613Z,49.9
2023-05-18T14:18:41.856Z,51.4
2023-05-18T14:19:57.111Z,49
2023-05-18T14:21:13.354Z,51.2
2023-05-18T14:23:44.849Z,48.1
2023-05-18T14:25:01.093Z,50
2023-05-18T14:26:17.323Z,49.4
2023-05-18T14:28:49.812Z,50.4
2023-05-18T14:30:06.056Z,49.7
2023-05-18T14:31:22.299Z,49.9
2023-05-18T14:33:54.763Z,49.1
2023-05-18T14:35:11.008Z,52.2
2023-05-18T14:36:26.262Z,49
2023-05-18T14:37:41.525Z,51.7
2023-05-18T14:38:57.766Z,49.9
2023-05-18T14:40:14.006Z,49.7
2023-05-18T14:41:30.246Z,50.6
2023-05-18T14:42:46.479Z,51.3
2023-05-18T14:44:02.723Z,49.1
2023-05-18T14:45:18.958Z,51.8
2023-05-18T14:46:35.208Z,50.1
2023-05-18T14:47:51.440Z,50.7
2023-05-18T14:49:06.713Z,50.6
2023-05-18T14:50:21.962Z,49.5
2023-05-18T14:51:38.206Z,51.8
2023-05-18T14:52:54.436Z,49.5
2023-05-18T14:54:10.680Z,50.1
2023-05-18T14:55:26.927Z,51.4
2023-05-18T14:56:43.163Z,48.9
2023-05-18T14:57:59.404Z,49.4
2023-05-18T14:59:15.641Z,50.9
2023-05-18T15:00:31.884Z,49.9
2023-05-18T15:01:48.111Z,49.4
2023-05-18T15:03:04.364Z,49
2023-05-18T15:04:20.594Z,50
2023-05-18T15:05:36.841Z,52.3
2023-05-18T15:06:52.101Z,50.8
2023-05-18T15:08:08.331Z,48.9
2023-05-18T15:09:24.580Z,49.4
2023-05-18T15:10:40.808Z,50.3
2023-05-18T15:11:57.064Z,50.2
2023-05-18T15:14:29.525Z,53.9
2023-05-18T15:15:45.773Z,51.3
2023-05-18T15:17:02.007Z,49.7
2023-05-18T15:18:18.255Z,50.2
2023-05-18T15:19:34.498Z,50
2023-05-18T15:20:50.737Z,49.6
2023-05-18T15:22:06.981Z,51.6
2023-05-18T15:23:22.239Z,51.2
2023-05-18T15:24:38.463Z,50.9
2023-05-18T15:25:54.712Z,50.3
2023-05-18T15:27:10.959Z,51.2
2023-05-18T15:28:27.193Z,49.3
2023-05-18T15:29:43.428Z,50.5
2023-05-18T15:30:59.663Z,50.9
2023-05-18T15:32:15.905Z,51.2
2023-05-18T15:33:32.149Z,49.6
2023-05-18T15:34:48.385Z,47.5
2023-05-18T15:36:04.627Z,51.5
2023-05-18T15:37:20.874Z,51.4
2023-05-18T15:38:37.109Z,49.3
2023-05-18T15:39:52.357Z,48.9
2023-05-18T15:41:08.611Z,49.4
2023-05-18T15:42:24.851Z,47.6
2023-05-18T15:43:41.085Z,49.6
2023-05-18T15:44:57.329Z,49.7
2023-05-18T15:46:13.566Z,50.2
2023-05-18T15:47:29.809Z,49
2023-05-18T15:48:46.038Z,49.6
2023-05-18T15:50:02.292Z,51.3
2023-05-18T15:51:18.513Z,51.4
2023-05-18T15:52:34.772Z,50.6
2023-05-18T15:53:51.006Z,48.4
2023-05-18T15:55:07.249Z,49
2023-05-18T15:56:22.504Z,50
2023-05-18T15:57:38.736Z,48
2023-05-18T16:00:11.224Z,49.3
2023-05-18T16:01:27.471Z,47.9
2023-05-18T16:02:43.709Z,47.7
2023-05-18T16:03:59.942Z,46.7
2023-05-18T16:05:16.178Z,48.7
2023-05-18T16:06:32.418Z,49.7
2023-05-18T16:07:48.660Z,51
2023-05-18T16:09:04.894Z,49.2
2023-05-18T16:10:21.140Z,47.5
2023-05-18T16:11:37.378Z,47.9
2023-05-18T16:12:52.638Z,47.3
2023-05-18T16:14:08.883Z,48
2023-05-18T16:15:25.118Z,47.9
2023-05-18T16:16:41.357Z,49.8
2023-05-18T16:17:57.590Z,46.9
2023-05-18T16:19:13.836Z,46.3
2023-05-18T16:20:30.068Z,45.6
2023-05-18T16:21:46.314Z,46.2
2023-05-18T16:23:02.554Z,45.1
2023-05-18T16:24:18.787Z,45.7
2023-05-18T16:25:35.031Z,46.4
2023-05-18T16:26:51.281Z,45.1
2023-05-18T16:28:07.514Z,45
2023-05-18T16:29:22.764Z,44.9
2023-05-18T16:30:38.998Z,47.2
2023-05-18T16:31:55.256Z,46.3
2023-05-18T16:33:11.481Z,46.9
2023-05-18T16:34:27.726Z,47.4
2023-05-18T16:35:43.967Z,46.8
2023-05-18T16:37:00.213Z,48.5
2023-05-18T16:38:16.448Z,46.8
2023-05-18T16:39:32.685Z,49
2023-05-18T16:40:48.924Z,48.2
2023-05-18T16:42:05.166Z,49.1
2023-05-18T16:43:21.410Z,48.4
2023-05-18T16:44:37.640Z,49
2023-05-18T16:45:52.913Z,48.7
2023-05-18T16:47:09.143Z,49.4
2023-05-18T16:48:25.377Z,50.7
2023-05-18T16:49:41.614Z,50.1
2023-05-18T16:50:57.862Z,49
2023-05-18T16:52:14.109Z,49.9
2023-05-18T16:53:30.332Z,49.5
2023-05-18T16:54:46.589Z,50.4
2023-05-18T16:56:02.829Z,50.3
2023-05-18T16:57:19.060Z,49.8
2023-05-18T16:58:35.300Z,50.5
2023-05-18T16:59:51.539Z,48.5
2023-05-18T17:01:07.771Z,49.9
2023-05-18T17:02:23.046Z,49.6
2023-05-18T17:03:39.272Z,48.4
2023-05-18T17:04:55.507Z,48.7
2023-05-18T17:06:11.760Z,48.5
2023-05-18T17:08:44.229Z,46.2
2023-05-18T17:10:00.480Z,44.8
2023-05-18T17:11:16.714Z,44.8
2023-05-18T17:12:32.946Z,44.2
2023-05-18T17:13:49.201Z,43.4
2023-05-18T17:15:05.439Z,44.2
2023-05-18T17:16:21.678Z,45.5
2023-05-18T17:17:37.921Z,45.4
2023-05-18T17:18:53.175Z,45.2
2023-05-18T17:20:09.412Z,46.8
2023-05-18T17:21:25.659Z,45.9
2023-05-18T17:22:41.888Z,46.3
2023-05-18T17:23:58.123Z,45.1
2023-05-18T17:25:14.361Z,45.7
2023-05-18T17:26:30.600Z,47
2023-05-18T17:27:46.838Z,46.3
2023-05-18T17:29:03.080Z,44.4
2023-05-18T17:30:19.338Z,44.2
2023-05-18T17:31:35.574Z,45.5
2023-05-18T17:32:51.816Z,45.5
2023-05-18T17:34:08.052Z,44.4
2023-05-18T17:35:23.312Z,43.1
2023-05-18T17:36:38.568Z,44.7
2023-05-18T17:39:11.046Z,42.5
2023-05-18T17:40:27.275Z,43.7
2023-05-18T17:41:43.527Z,41
2023-05-18T17:42:59.759Z,42.6
2023-05-18T17:44:16.007Z,43
2023-05-18T17:45:32.234Z,41.5
2023-05-18T17:46:48.477Z,43.1
2023-05-18T17:48:04.717Z,42.6
2023-05-18T17:49:20.972Z,42.3
2023-05-18T17:50:37.198Z,41.4
2023-05-18T17:51:53.444Z,42.1
2023-05-18T17:53:08.695Z,43.1
2023-05-18T17:54:24.938Z,42.6
2023-05-18T17:55:41.188Z,44
2023-05-18T17:56:57.423Z,44.2
2023-05-18T17:58:13.669Z,42.6
2023-05-18T17:59:29.897Z,43.5
2023-05-18T18:00:46.138Z,44.4
2023-05-18T18:02:02.368Z,44
2023-05-18T18:03:18.626Z,44.1
2023-05-18T18:04:34.868Z,45.4